Time;durP1;ratioP1;P1;durP2;ratioP2;P2;SDS_P1;SDS_P2;PMS_P1;PMS_P2;Temp;Humidity;BMP_temperature;BMP_pressure;BME280_temperature;BME280_humidity;BME280_pressure;Samples;Min_cycle;Max_cycle;Signal;HPM_P1;HPM_P2
2023/08/11 00:00:08;;;;;;;0.50;0.33;;;;;;;19.02;93.43;95629.19;5112825;28;20497;-54
2023/08/11 00:02:37;;;;;;;0.60;0.57;;;;;;;18.81;91.08;95630.88;5113958;28;20450;-54
2023/08/11 00:05:08;;;;;;;0.50;0.30;;;;;;;18.21;96.46;95636.03;5114010;28;20811;-54
2023/08/11 00:07:36;;;;;;;0.50;0.50;;;;;;;17.97;99.25;95627.53;5112500;28;20526;-54
2023/08/11 00:10:06;;;;;;;0.50;0.37;;;;;;;17.90;100.00;95636.03;5101654;28;20441;-55
2023/08/11 00:12:35;;;;;;;0.60;0.37;;;;;;;18.37;100.00;95631.81;5112290;28;20845;-54
2023/08/11 00:15:03;;;;;;;0.47;0.30;;;;;;;18.79;98.28;95622.34;5114016;28;20519;-55
2023/08/11 00:17:32;;;;;;;0.70;0.43;;;;;;;18.66;94.98;95616.00;5113201;28;20951;-54
2023/08/11 00:20:02;;;;;;;0.47;0.30;;;;;;;19.01;94.36;95624.91;5113729;28;20439;-54
2023/08/11 00:22:33;;;;;;;0.40;0.30;;;;;;;19.05;93.02;95625.09;5113629;28;20436;-54
2023/08/11 00:25:01;;;;;;;0.40;0.20;;;;;;;18.97;91.57;95619.34;5113481;28;20523;-53
2023/08/11 00:27:30;;;;;;;0.50;0.30;;;;;;;19.01;89.04;95619.53;5113304;28;20475;-55
2023/08/11 00:29:59;;;;;;;0.50;0.30;;;;;;;18.99;90.54;95616.38;5113052;27;20937;-54
2023/08/11 00:32:27;;;;;;;0.50;0.30;;;;;;;18.65;91.33;95617.09;5113899;28;20465;-54
2023/08/11 00:34:56;;;;;;;0.40;0.30;;;;;;;18.55;94.36;95622.75;5113118;28;20522;-54
2023/08/11 00:37:24;;;;;;;0.50;0.40;;;;;;;18.79;93.81;95623.16;5113063;27;20535;-54
2023/08/11 00:39:54;;;;;;;0.60;0.40;;;;;;;18.94;92.61;95625.38;5112738;28;20473;-54
2023/08/11 00:42:22;;;;;;;0.40;0.20;;;;;;;18.96;92.37;95617.78;5113361;28;20436;-54
2023/08/11 00:44:51;;;;;;;0.40;0.20;;;;;;;19.10;93.69;95624.94;5112244;28;20864;-54
2023/08/11 00:47:19;;;;;;;0.40;0.30;;;;;;;19.10;90.20;95614.19;5112881;28;20547;-54
2023/08/11 00:49:49;;;;;;;0.40;0.20;;;;;;;19.36;89.12;95625.69;5112567;28;20507;-54
2023/08/11 00:52:18;;;;;;;0.43;0.27;;;;;;;19.29;90.14;95626.19;5112970;28;20798;-54
2023/08/11 00:54:47;;;;;;;0.40;0.30;;;;;;;19.71;87.74;95632.66;5113204;28;20482;-54
2023/08/11 00:57:17;;;;;;;0.83;0.50;;;;;;;19.01;88.57;95631.06;5113042;28;20520;-54
2023/08/11 00:59:46;;;;;;;0.53;0.53;;;;;;;18.80;91.04;95626.59;5112884;28;20439;-54
2023/08/11 01:02:14;;;;;;;0.70;0.70;;;;;;;19.31;90.72;95620.50;5109244;28;20552;-53
2023/08/11 01:04:43;;;;;;;0.60;0.40;;;;;;;19.18;89.91;95632.97;5113281;28;20496;-54
2023/08/11 01:07:21;;;;;;;0.40;0.30;;;;;;;17.49;100.00;95651.50;5112887;28;20471;-53
2023/08/11 01:09:59;;;;;;;0.60;0.37;;;;;;;16.96;100.00;95652.16;5112889;28;20492;-54
2023/08/11 01:12:37;;;;;;;0.50;0.30;;;;;;;17.88;100.00;95643.59;5112399;28;20789;-53
2023/08/11 01:15:11;;;;;;;0.50;0.43;;;;;;;18.12;100.00;95652.09;5113158;28;20439;-54
2023/08/11 01:17:42;;;;;;;0.50;0.50;;;;;;;18.39;100.00;95656.47;5112746;28;20500;-54
2023/08/11 01:20:15;;;;;;;8.17;0.53;;;;;;;18.58;100.00;95653.56;5112397;28;20440;-53
2023/08/11 01:22:47;;;;;;;0.50;0.30;;;;;;;18.63;98.28;95648.84;5112638;28;20448;-53
2023/08/11 01:25:17;;;;;;;0.40;0.23;;;;;;;18.53;100.00;95654.50;5112403;28;21002;-53
2023/08/11 01:27:48;;;;;;;0.40;0.30;;;;;;;18.49;100.00;95650.06;5112325;28;20475;-54
2023/08/11 01:30:16;;;;;;;0.40;0.40;;;;;;;18.70;100.00;95651.84;5112110;28;20517;-53
2023/08/11 01:32:45;;;;;;;0.47;0.30;;;;;;;19.04;97.87;95661.91;5112703;28;20836;-54
2023/08/11 01:35:13;;;;;;;0.53;0.53;;;;;;;19.28;96.57;95664.13;5112198;28;20527;-53
2023/08/11 01:37:56;;;;;;;0.57;0.50;;;;;;;19.03;96.49;95663.00;5112357;28;20467;-53
2023/08/11 01:40:27;;;;;;;0.40;0.30;;;;;;;18.89;95.02;95649.72;5112205;28;20444;-53
2023/08/11 01:43:00;;;;;;;0.40;0.30;;;;;;;18.71;97.46;95653.44;5112048;28;20444;-54
2023/08/11 01:45:29;;;;;;;0.40;0.30;;;;;;;18.73;98.96;95653.13;5112561;28;20446;-54
2023/08/11 01:47:59;;;;;;;0.40;0.30;;;;;;;18.74;99.18;95652.84;5112039;27;20495;-53
2023/08/11 01:50:28;;;;;;;0.40;0.30;;;;;;;18.66;99.74;95655.47;5112059;28;20894;-54
2023/08/11 01:52:57;;;;;;;0.60;0.50;;;;;;;18.50;100.00;95659.69;5111642;28;20439;-53
2023/08/11 01:55:28;;;;;;;0.60;0.40;;;;;;;18.46;99.66;95656.81;5111965;28;21170;-54
2023/08/11 01:57:57;;;;;;;0.60;0.47;;;;;;;18.57;99.07;95647.41;5110820;28;20443;-53
2023/08/11 02:00:28;;;;;;;0.50;0.30;;;;;;;18.56;98.95;95645.03;5112463;28;20467;-54
2023/08/11 02:02:57;;;;;;;0.53;0.53;;;;;;;18.62;98.23;95639.19;5111734;28;20443;-53
2023/08/11 02:05:26;;;;;;;0.40;0.30;;;;;;;18.63;99.85;95643.47;5111758;28;20991;-52
2023/08/11 02:07:55;;;;;;;0.50;0.30;;;;;;;18.65;99.82;95643.94;5111561;28;21010;-53
2023/08/11 02:10:24;;;;;;;0.40;0.30;;;;;;;18.56;98.49;95639.66;5111536;28;20439;-53
2023/08/11 02:12:54;;;;;;;0.57;0.47;;;;;;;18.56;96.48;95637.78;5112143;28;20896;-52
2023/08/11 02:15:22;;;;;;;0.70;0.60;;;;;;;18.44;99.20;95642.13;5111858;28;20439;-52
2023/08/11 02:17:50;;;;;;;0.50;0.30;;;;;;;18.43;97.15;95641.31;5111720;28;20497;-54
2023/08/11 02:20:21;;;;;;;0.40;0.20;;;;;;;18.52;97.81;95631.44;5111828;28;20542;-54
2023/08/11 02:22:51;;;;;;;0.50;0.30;;;;;;;18.28;98.16;95628.31;5112465;28;20851;-54
2023/08/11 02:25:19;;;;;;;0.50;0.33;;;;;;;18.37;98.37;95624.56;5116122;28;20435;-53
2023/08/11 02:27:48;;;;;;;0.50;0.40;;;;;;;18.24;98.46;95624.69;5116352;27;20478;-54
2023/08/11 02:30:18;;;;;;;0.60;0.40;;;;;;;18.29;98.85;95629.91;5115799;28;20435;-53
2023/08/11 02:32:47;;;;;;;0.50;0.30;;;;;;;17.61;99.91;95627.63;5116327;27;20992;-54
2023/08/11 02:35:17;;;;;;;0.50;0.30;;;;;;;17.31;100.00;95634.50;5115904;28;20488;-53
2023/08/11 02:37:46;;;;;;;0.70;0.50;;;;;;;16.47;100.00;95543.16;5116195;28;20442;-53
2023/08/11 02:40:16;;;;;;;0.50;0.30;;;;;;;17.75;100.00;95623.81;5088643;28;20469;-54
2023/08/11 02:42:48;;;;;;;3.33;1.07;;;;;;;18.11;100.00;95622.91;5114864;28;20501;-53
2023/08/11 02:45:18;;;;;;;0.53;0.33;;;;;;;18.17;99.40;95632.38;5103762;28;20492;-53
2023/08/11 02:47:46;;;;;;;0.53;0.30;;;;;;;18.58;97.67;95626.72;5115752;27;20544;-53
2023/08/11 02:50:15;;;;;;;0.50;0.30;;;;;;;18.32;98.26;95642.69;5115848;28;20444;-54
2023/08/11 02:52:43;;;;;;;0.50;0.40;;;;;;;18.31;99.58;95649.19;5115620;28;20446;-53
2023/08/11 02:55:12;;;;;;;0.50;0.30;;;;;;;18.65;97.14;95646.63;5115488;28;21051;-53
2023/08/11 02:57:40;;;;;;;0.40;0.20;;;;;;;18.33;95.11;95657.72;5115214;28;20477;-53
2023/08/11 03:00:13;;;;;;;0.60;0.50;;;;;;;17.04;100.00;95653.34;5114776;28;20843;-53
2023/08/11 03:02:45;;;;;;;0.60;0.60;;;;;;;16.67;100.00;95656.28;5114990;28;20479;-53
2023/08/11 03:05:16;;;;;;;0.40;0.30;;;;;;;17.09;100.00;95663.94;5114768;28;20505;-53
2023/08/11 03:07:44;;;;;;;0.50;0.40;;;;;;;17.52;100.00;95657.09;5115512;28;20541;-52
2023/08/11 03:10:13;;;;;;;0.50;0.40;;;;;;;17.75;100.00;95650.63;5115313;28;20801;-52
2023/08/11 03:12:41;;;;;;;0.63;0.40;;;;;;;17.84;100.00;95658.69;5107388;28;20447;-52
2023/08/11 03:15:10;;;;;;;0.80;0.67;;;;;;;17.92;100.00;95657.16;5115662;28;20446;-52
2023/08/11 03:17:39;;;;;;;0.50;0.40;;;;;;;17.85;100.00;95672.91;5088720;28;20929;-52
2023/08/11 03:20:12;;;;;;;0.60;0.43;;;;;;;17.70;100.00;95668.72;5114358;28;20520;-51
2023/08/11 03:22:43;;;;;;;0.40;0.30;;;;;;;17.38;100.00;95668.91;5115008;28;20465;-52
2023/08/11 03:25:12;;;;;;;0.80;0.63;;;;;;;17.38;100.00;95663.56;5115015;28;20968;-52
2023/08/11 03:27:42;;;;;;;0.57;0.57;;;;;;;17.73;100.00;95663.50;5114641;28;20463;-52
2023/08/11 03:30:12;;;;;;;0.40;0.30;;;;;;;18.07;100.00;95660.25;5115043;28;20428;-52
2023/08/11 03:32:41;;;;;;;0.50;0.30;;;;;;;18.27;98.72;95665.09;5115071;28;20443;-52
2023/08/11 03:35:11;;;;;;;0.60;0.40;;;;;;;18.68;95.76;95659.44;5114026;28;20448;-52
2023/08/11 03:37:40;;;;;;;0.40;0.20;;;;;;;18.75;93.44;95662.47;5113949;28;20512;-53
2023/08/11 03:40:12;;;;;;;0.80;0.80;;;;;;;18.77;91.91;95649.50;5113308;28;20428;-52
2023/08/11 03:42:42;;;;;;;0.50;0.30;;;;;;;18.35;92.31;95655.50;5114501;28;20432;-52
2023/08/11 03:45:12;;;;;;;0.40;0.30;;;;;;;18.31;96.68;95654.53;5114283;28;20431;-52
2023/08/11 03:47:41;;;;;;;0.50;0.30;;;;;;;17.95;97.59;95638.59;5114153;28;20471;-52
2023/08/11 03:50:12;;;;;;;0.50;0.33;;;;;;;18.04;97.88;95662.75;5114152;28;20435;-52
2023/08/11 03:52:41;;;;;;;0.40;0.30;;;;;;;17.89;98.77;95658.56;5113941;28;20492;-52
2023/08/11 03:55:12;;;;;;;0.40;0.30;;;;;;;17.95;98.55;95670.78;5114600;28;20450;-52
2023/08/11 03:57:41;;;;;;;0.50;0.30;;;;;;;17.84;97.35;95660.59;5114186;28;20481;-54
2023/08/11 04:00:15;;;;;;;0.40;0.30;;;;;;;18.00;97.30;95669.84;5114370;28;20448;-62
2023/08/11 04:02:44;;;;;;;0.40;0.20;;;;;;;18.21;95.96;95671.72;5114231;28;21005;-62
2023/08/11 04:05:14;;;;;;;0.50;0.50;;;;;;;18.18;96.10;95668.84;5114001;28;20738;-61
2023/08/11 04:07:42;;;;;;;0.50;0.40;;;;;;;18.21;97.59;95674.41;5113910;28;20892;-60
2023/08/11 04:10:11;;;;;;;4.33;0.43;;;;;;;18.11;96.26;95657.75;5114344;28;20434;-60
2023/08/11 04:12:40;;;;;;;0.60;0.47;;;;;;;18.21;96.14;95670.91;5113900;28;20870;-60
2023/08/11 04:15:08;;;;;;;0.40;0.30;;;;;;;18.20;96.15;95674.69;5113668;28;20496;-60
2023/08/11 04:17:37;;;;;;;1.23;1.13;;;;;;;18.16;94.02;95676.41;5113747;28;21007;-61
2023/08/11 04:20:12;;;;;;;1.70;0.97;;;;;;;18.04;96.56;95676.97;5113771;28;20448;-60
2023/08/11 04:22:43;;;;;;;0.50;0.30;;;;;;;18.21;97.04;95681.66;5113428;28;20444;-61
2023/08/11 04:25:13;;;;;;;0.60;0.30;;;;;;;18.16;96.32;95689.81;5113429;28;20485;-61
2023/08/11 04:27:42;;;;;;;3.03;0.40;;;;;;;18.29;94.43;95691.63;5114007;28;20436;-61
2023/08/11 04:30:12;;;;;;;0.50;0.30;;;;;;;18.38;94.80;95697.81;5113223;27;20522;-61
2023/08/11 04:32:40;;;;;;;0.60;0.60;;;;;;;17.57;94.99;95665.00;5113826;28;20949;-62
2023/08/11 04:35:09;;;;;;;2.30;0.70;;;;;;;17.40;100.00;95688.97;5113411;28;20436;-61
2023/08/11 04:37:37;;;;;;;1.47;0.73;;;;;;;17.61;100.00;95692.78;5113813;27;21098;-61
2023/08/11 04:40:11;;;;;;;1.07;0.97;;;;;;;16.32;100.00;95701.31;5113141;28;20470;-60
2023/08/11 04:42:39;;;;;;;0.57;0.40;;;;;;;15.46;100.00;95703.81;5113332;28;20991;-60
2023/08/11 04:45:08;;;;;;;1.73;0.83;;;;;;;15.56;100.00;95709.03;5112993;28;20480;-60
2023/08/11 04:47:37;;;;;;;0.50;0.40;;;;;;;15.92;100.00;95704.69;5112996;28;20473;-59
2023/08/11 04:50:08;;;;;;;1.47;0.50;;;;;;;16.06;100.00;95702.88;5112719;28;20464;-60
2023/08/11 04:52:37;;;;;;;2.87;0.73;;;;;;;16.05;100.00;95708.50;5112116;28;20798;-59
2023/08/11 04:55:08;;;;;;;0.97;0.40;;;;;;;16.11;100.00;95705.47;5113222;28;20493;-61
2023/08/11 04:57:36;;;;;;;0.63;0.63;;;;;;;16.02;100.00;95703.72;5112403;28;20887;-60
2023/08/11 05:00:13;;;;;;;0.60;0.40;;;;;;;15.96;100.00;95710.25;5113166;28;20460;-60
2023/08/11 05:02:42;;;;;;;6.10;0.87;;;;;;;15.79;100.00;95719.59;5112707;28;20463;-60
2023/08/11 05:05:12;;;;;;;0.50;0.50;;;;;;;16.03;100.00;95713.34;5112516;28;20444;-61
2023/08/11 05:07:40;;;;;;;0.77;0.77;;;;;;;16.28;100.00;95719.06;5112241;28;20907;-60
2023/08/11 05:10:11;;;;;;;0.87;0.87;;;;;;;16.54;100.00;95710.59;5112700;28;20480;-61
2023/08/11 05:12:39;;;;;;;0.77;0.77;;;;;;;16.50;100.00;95716.50;5112254;28;20448;-60
2023/08/11 05:15:08;;;;;;;0.57;0.40;;;;;;;16.55;100.00;95723.66;5108630;28;20450;-61
2023/08/11 05:17:36;;;;;;;0.50;0.40;;;;;;;17.08;100.00;95730.09;5111798;28;20439;-61
2023/08/11 05:20:07;;;;;;;0.50;0.30;;;;;;;17.62;100.00;95723.84;5112500;28;20978;-62
2023/08/11 05:22:36;;;;;;;0.50;0.40;;;;;;;17.68;100.00;95716.50;5086284;28;20440;-62
2023/08/11 05:25:05;;;;;;;0.40;0.20;;;;;;;17.89;100.00;95727.50;5111967;28;20971;-62
2023/08/11 05:27:35;;;;;;;0.40;0.20;;;;;;;17.98;100.00;95736.41;5100429;28;20436;-61
2023/08/11 05:30:04;;;;;;;0.40;0.30;;;;;;;18.09;100.00;95721.66;5112162;28;20471;-64
2023/08/11 05:32:33;;;;;;;0.50;0.30;;;;;;;18.11;100.00;95700.69;5112128;28;20508;-63
2023/08/11 05:35:02;;;;;;;0.50;0.30;;;;;;;18.53;100.00;95726.97;5112888;28;20523;-62
2023/08/11 05:37:30;;;;;;;0.67;0.53;;;;;;;18.63;99.29;95726.72;5112492;28;20462;-61
2023/08/11 05:39:59;;;;;;;0.40;0.20;;;;;;;18.86;97.93;95728.22;5112108;28;20432;-60
2023/08/11 05:42:27;;;;;;;0.40;0.30;;;;;;;19.01;97.39;95722.41;5112103;28;20998;-60
2023/08/11 05:44:57;;;;;;;0.40;0.30;;;;;;;19.06;95.87;95726.06;5112160;28;20439;-61
2023/08/11 05:47:26;;;;;;;0.50;0.40;;;;;;;19.02;94.89;95732.03;5112193;28;20452;-61
2023/08/11 05:49:54;;;;;;;0.50;0.40;;;;;;;19.09;92.23;95725.44;5111663;28;20556;-59
2023/08/11 05:52:22;;;;;;;0.40;0.30;;;;;;;19.24;90.56;95727.69;5111562;28;21172;-60
2023/08/11 05:54:51;;;;;;;0.40;0.30;;;;;;;18.81;92.20;95733.72;5111270;28;20967;-59
2023/08/11 05:57:19;;;;;;;0.60;0.60;;;;;;;18.74;92.65;95733.41;5111576;28;20564;-60
2023/08/11 05:59:48;;;;;;;0.80;0.60;;;;;;;19.23;91.18;95732.25;5112108;28;20800;-60
2023/08/11 06:02:17;;;;;;;0.50;0.40;;;;;;;19.85;88.33;95722.06;5112262;28;20941;-58
2023/08/11 06:04:46;;;;;;;0.57;0.40;;;;;;;20.55;82.90;95727.00;5111588;28;20497;-59
2023/08/11 06:07:14;;;;;;;1.00;0.40;;;;;;;20.00;82.48;95657.00;5111656;28;20448;-59
2023/08/11 06:09:43;;;;;;;0.60;0.40;;;;;;;20.18;84.62;95728.50;5112036;28;20471;-59
2023/08/11 06:12:11;;;;;;;0.83;0.83;;;;;;;20.30;83.99;95725.19;5112236;28;20489;-59
2023/08/11 06:14:39;;;;;;;0.97;0.97;;;;;;;20.86;79.86;95729.44;5110057;28;20450;-56
2023/08/11 06:17:08;;;;;;;0.63;0.40;;;;;;;21.29;79.11;95730.03;5111381;28;20501;-55
2023/08/11 06:19:41;;;;;;;0.73;0.47;;;;;;;21.87;77.34;95720.25;5111763;28;20810;-55
2023/08/11 06:22:09;;;;;;;0.40;0.27;;;;;;;22.20;75.64;95723.78;5111460;28;20923;-54
2023/08/11 06:24:38;;;;;;;0.40;0.20;;;;;;;22.41;75.34;95721.81;5112154;28;20432;-53
2023/08/11 06:27:07;;;;;;;0.40;0.30;;;;;;;22.51;72.18;95724.09;5111459;28;20442;-53
2023/08/11 06:29:35;;;;;;;0.40;0.20;;;;;;;22.65;72.47;95716.47;5100988;28;20472;-53
2023/08/11 06:32:04;;;;;;;0.40;0.30;;;;;;;22.85;70.59;95719.41;5110710;28;20941;-49
2023/08/11 06:34:33;;;;;;;0.93;0.90;;;;;;;22.10;72.80;95732.28;5111584;28;20497;-50
2023/08/11 06:37:02;;;;;;;0.60;0.40;;;;;;;22.74;73.17;95724.50;5111077;28;20483;-49
2023/08/11 06:39:31;;;;;;;0.90;0.90;;;;;;;23.01;72.38;95725.75;5111034;28;20443;-50
2023/08/11 06:41:59;;;;;;;0.70;0.43;;;;;;;23.06;70.84;95722.81;5112051;28;20436;-51
2023/08/11 06:44:27;;;;;;;1.20;0.40;;;;;;;22.79;71.50;95728.88;5111123;28;20496;-49
2023/08/11 06:46:59;;;;;;;0.70;0.50;;;;;;;22.95;71.52;95727.06;5111697;28;20436;-48
2023/08/11 06:49:27;;;;;;;0.50;0.40;;;;;;;22.84;73.54;95677.31;5110998;28;20568;-47
2023/08/11 06:51:55;;;;;;;0.60;0.40;;;;;;;23.66;71.21;95717.34;5111830;28;20917;-47
2023/08/11 06:54:25;;;;;;;0.40;0.30;;;;;;;24.19;69.33;95707.25;5111466;28;20436;-47
2023/08/11 06:56:53;;;;;;;0.83;0.83;;;;;;;23.24;68.58;95710.63;5111284;28;20439;-47
2023/08/11 06:59:22;;;;;;;0.57;0.50;;;;;;;23.38;69.64;95718.44;5110826;28;20435;-48
2023/08/11 07:01:50;;;;;;;0.90;0.90;;;;;;;23.33;68.75;95700.47;5111476;28;20509;-49
2023/08/11 07:04:19;;;;;;;1.27;1.17;;;;;;;23.10;69.44;95727.19;5111539;28;20435;-48
2023/08/11 07:06:48;;;;;;;0.70;0.70;;;;;;;23.26;68.63;95716.50;5111521;28;20443;-48
2023/08/11 07:09:16;;;;;;;0.80;0.70;;;;;;;24.00;67.99;95713.31;5112348;28;20467;-48
2023/08/11 07:11:46;;;;;;;0.40;0.30;;;;;;;23.97;67.50;95716.69;5115306;27;20777;-46
2023/08/11 07:14:14;;;;;;;0.60;0.50;;;;;;;24.23;66.51;95717.06;5114767;28;20436;-49
2023/08/11 07:16:42;;;;;;;0.90;0.90;;;;;;;23.93;65.97;95715.81;5114811;28;20443;-47
2023/08/11 07:19:11;;;;;;;0.50;0.40;;;;;;;24.21;65.33;95699.59;5114808;28;20519;-47
2023/08/11 07:21:39;;;;;;;0.83;0.83;;;;;;;24.94;64.87;95711.56;5115290;27;20440;-47
2023/08/11 07:24:07;;;;;;;0.70;0.70;;;;;;;24.50;63.95;95718.16;5088302;28;20447;-48
2023/08/11 07:26:36;;;;;;;16.57;1.20;;;;;;;24.10;64.87;95701.22;5114800;28;20482;-48
2023/08/11 07:29:06;;;;;;;0.60;0.40;;;;;;;24.04;64.51;95714.16;5114827;28;20492;-48
2023/08/11 07:31:34;;;;;;;0.77;0.40;;;;;;;24.68;62.42;95707.75;5114378;28;20431;-51
2023/08/11 07:34:03;;;;;;;0.93;0.93;;;;;;;24.56;63.24;95712.16;5114799;28;20447;-52
2023/08/11 07:36:31;;;;;;;0.70;0.40;;;;;;;25.03;63.26;95714.88;5114695;28;20475;-53
2023/08/11 07:38:59;;;;;;;0.47;0.40;;;;;;;24.92;63.33;95700.28;5115251;28;20439;-52
2023/08/11 07:41:48;;;;;;;0.60;0.40;;;;;;;25.09;62.51;95702.63;5114722;27;20447;-51
2023/08/11 07:44:17;;;;;;;0.63;0.63;;;;;;;25.09;61.82;95653.81;5114909;27;20435;-51
2023/08/11 07:46:46;;;;;;;0.50;0.40;;;;;;;26.00;60.30;95697.66;5097214;28;20490;-51
2023/08/11 07:49:15;;;;;;;1.70;0.87;;;;;;;26.05;61.36;95708.25;5091484;28;20463;-51
2023/08/11 07:51:43;;;;;;;1.50;0.90;;;;;;;25.68;58.97;95713.28;5114407;27;20450;-51
2023/08/11 07:54:11;;;;;;;0.60;0.50;;;;;;;26.17;58.15;95718.19;5114292;28;20447;-51
2023/08/11 07:56:40;;;;;;;0.90;0.80;;;;;;;25.85;56.83;95717.53;5113668;28;20452;-51
2023/08/11 07:59:08;;;;;;;0.83;0.47;;;;;;;26.48;57.20;95712.59;5114549;28;20431;-52
2023/08/11 08:01:38;;;;;;;0.87;0.43;;;;;;;27.61;54.99;95709.00;5114871;28;20439;-52
2023/08/11 08:04:06;;;;;;;0.83;0.83;;;;;;;26.44;55.23;95711.72;5113973;28;20474;-54
2023/08/11 08:06:42;;;;;;;0.50;0.50;;;;;;;26.98;55.43;95698.72;5114108;28;20518;-55
2023/08/11 08:09:11;;;;;;;0.40;0.40;;;;;;;26.96;52.57;95700.22;5114031;27;20483;-55
2023/08/11 08:11:40;;;;;;;0.40;0.30;;;;;;;28.04;52.76;95700.25;5114131;28;20548;-54
2023/08/11 08:14:08;;;;;;;0.50;0.50;;;;;;;28.83;51.46;95694.47;5113872;28;20447;-54
2023/08/11 08:16:41;;;;;;;0.77;0.77;;;;;;;28.37;48.60;95694.00;5113956;28;20439;-55
2023/08/11 08:19:10;;;;;;;0.50;0.50;;;;;;;28.88;51.37;95692.19;5113520;28;20956;-55
2023/08/11 08:21:39;;;;;;;1.63;0.50;;;;;;;28.68;47.54;95690.06;5112576;28;20446;-55
2023/08/11 08:24:08;;;;;;;0.60;0.60;;;;;;;29.53;46.87;95686.03;5113453;28;20431;-56
2023/08/11 08:26:36;;;;;;;0.47;0.40;;;;;;;29.96;44.39;95676.94;5113597;28;20439;-55
2023/08/11 08:29:05;;;;;;;0.40;0.40;;;;;;;28.99;43.68;95678.63;5113219;28;20492;-55
2023/08/11 08:31:33;;;;;;;0.80;0.30;;;;;;;29.03;41.88;95682.16;5113451;28;20528;-54
2023/08/11 08:34:03;;;;;;;0.40;0.40;;;;;;;29.71;43.07;95670.53;5113415;28;20828;-54
2023/08/11 08:36:32;;;;;;;0.57;0.40;;;;;;;30.12;44.47;95674.66;5113682;28;20436;-53
2023/08/11 08:39:00;;;;;;;0.90;0.50;;;;;;;30.29;40.02;95655.94;5112900;27;20937;-55
2023/08/11 08:41:30;;;;;;;0.50;0.47;;;;;;;30.78;40.20;95667.78;5113169;28;20435;-55
2023/08/11 08:44:01;;;;;;;0.60;0.60;;;;;;;31.05;41.39;95657.22;5113681;28;20454;-55
2023/08/11 08:46:32;;;;;;;0.60;0.50;;;;;;;31.37;38.21;95655.22;5113439;28;20436;-55
2023/08/11 08:49:08;;;;;;;0.43;0.43;;;;;;;30.65;40.01;95665.81;5112823;28;20546;-55
2023/08/11 08:51:39;;;;;;;0.50;0.30;;;;;;;31.46;37.80;95648.59;5113198;28;20481;-55
2023/08/11 08:54:09;;;;;;;0.50;0.40;;;;;;;30.27;37.93;95587.97;5113071;28;20445;-56
2023/08/11 08:56:39;;;;;;;1.40;0.80;;;;;;;30.64;39.01;95662.28;5113407;28;20443;-56
2023/08/11 08:59:08;;;;;;;0.47;0.40;;;;;;;30.49;38.00;95652.47;5112938;28;20514;-54
2023/08/11 09:01:38;;;;;;;0.40;0.30;;;;;;;31.31;38.90;95656.81;5112961;28;20937;-54
2023/08/11 09:04:10;;;;;;;0.30;0.30;;;;;;;31.33;38.81;95654.47;5105696;28;20443;-52
2023/08/11 09:06:39;;;;;;;0.50;0.40;;;;;;;30.95;36.52;95663.50;5107740;28;20921;-53
2023/08/11 09:09:10;;;;;;;0.63;0.40;;;;;;;31.60;36.12;95656.78;5113025;28;20443;-53
2023/08/11 09:11:39;;;;;;;0.40;0.30;;;;;;;31.36;36.17;95659.16;5112856;28;20566;-53
2023/08/11 09:14:10;;;;;;;0.40;0.30;;;;;;;32.18;37.70;95647.97;5112243;28;20453;-53
2023/08/11 09:16:39;;;;;;;0.60;0.40;;;;;;;30.92;36.07;95653.31;5112225;28;20945;-53
2023/08/11 09:19:12;;;;;;;0.40;0.30;;;;;;;31.52;35.68;95649.78;5112699;28;20438;-54
2023/08/11 09:21:42;;;;;;;0.50;0.50;;;;;;;32.44;33.40;95641.91;5112235;28;20454;-53
2023/08/11 09:24:12;;;;;;;0.30;0.20;;;;;;;33.11;33.93;95645.00;5106322;28;20447;-54
2023/08/11 09:26:43;;;;;;;0.40;0.30;;;;;;;33.30;35.72;95640.09;5085359;28;20447;-54
2023/08/11 09:29:12;;;;;;;0.40;0.37;;;;;;;33.41;34.89;95640.78;5111808;28;20431;-54
2023/08/11 09:31:41;;;;;;;0.40;0.30;;;;;;;32.72;33.29;95633.53;5112143;28;20478;-53
2023/08/11 09:34:16;;;;;;;0.73;0.40;;;;;;;33.47;32.61;95637.16;5111664;28;20438;-54
2023/08/11 09:36:46;;;;;;;0.40;0.30;;;;;;;32.68;33.67;95637.50;5111999;28;20439;-54
2023/08/11 09:39:14;;;;;;;0.50;0.50;;;;;;;31.27;33.25;95638.84;5111698;28;20492;-54
2023/08/11 09:41:44;;;;;;;0.30;0.30;;;;;;;31.27;35.15;95638.84;5112270;28;20446;-54
2023/08/11 09:44:15;;;;;;;0.60;0.50;;;;;;;30.85;35.57;95639.63;5111185;28;20462;-53
2023/08/11 09:46:44;;;;;;;0.40;0.40;;;;;;;31.52;35.08;95634.13;5111678;28;20478;-53
2023/08/11 09:49:15;;;;;;;0.50;0.50;;;;;;;32.17;33.90;95630.72;5111413;28;20940;-53
2023/08/11 09:51:44;;;;;;;0.43;0.30;;;;;;;33.07;31.72;95630.50;5112178;28;20462;-53
2023/08/11 09:54:14;;;;;;;0.67;0.50;;;;;;;32.72;31.48;95624.50;5111387;28;20468;-53
2023/08/11 09:56:44;;;;;;;0.40;0.30;;;;;;;32.98;31.84;95624.69;5111263;28;20439;-54
2023/08/11 09:59:15;;;;;;;0.77;0.50;;;;;;;33.61;31.22;95615.06;5112138;28;20851;-53
2023/08/11 10:01:45;;;;;;;0.33;0.30;;;;;;;33.96;30.78;95597.34;5111143;28;20919;-53
2023/08/11 10:04:19;;;;;;;0.40;0.30;;;;;;;33.10;31.70;95612.44;5112383;28;20438;-53
2023/08/11 10:06:51;;;;;;;0.30;0.30;;;;;;;33.41;31.77;95614.09;5112160;28;21248;-53
2023/08/11 10:09:23;;;;;;;0.50;0.37;;;;;;;34.49;30.96;95621.41;5112269;28;20590;-53
2023/08/11 10:11:53;;;;;;;0.40;0.30;;;;;;;34.77;28.79;95609.19;5111269;28;20500;-53
2023/08/11 10:14:22;;;;;;;0.40;0.30;;;;;;;35.49;29.65;95605.59;5112161;28;20815;-53
2023/08/11 10:16:52;;;;;;;0.40;0.30;;;;;;;35.26;29.67;95596.56;5111134;28;20434;-53
2023/08/11 10:19:22;;;;;;;0.57;0.37;;;;;;;33.56;31.39;95599.03;5111668;28;20439;-52
2023/08/11 10:21:50;;;;;;;0.50;0.30;;;;;;;33.76;33.40;95608.22;5111726;28;20438;-52
2023/08/11 10:24:20;;;;;;;0.40;0.40;;;;;;;31.72;34.85;95607.03;5111051;28;20442;-52
2023/08/11 10:26:49;;;;;;;0.40;0.30;;;;;;;31.14;36.22;95600.13;5111912;28;20438;-53
2023/08/11 10:29:19;;;;;;;0.30;0.30;;;;;;;31.39;36.23;95600.06;5111008;28;20439;-53
2023/08/11 10:31:55;;;;;;;0.47;0.30;;;;;;;31.55;34.63;95569.50;5112127;28;20531;-53
2023/08/11 10:34:26;;;;;;;0.40;0.30;;;;;;;29.20;36.91;95602.38;5111893;28;20437;-53
2023/08/11 10:36:55;;;;;;;0.50;0.50;;;;;;;30.02;37.69;95603.53;5111647;28;20434;-53
2023/08/11 10:39:24;;;;;;;0.50;0.50;;;;;;;30.52;38.63;95599.72;5111394;28;20484;-53
2023/08/11 10:41:52;;;;;;;0.40;0.30;;;;;;;30.16;36.62;95592.63;5111696;28;20486;-53
2023/08/11 10:44:42;;;;;;;0.40;0.30;;;;;;;31.80;37.19;95586.63;5113398;28;20503;-53
2023/08/11 10:47:12;;;;;;;0.40;0.30;;;;;;;31.07;36.34;95586.44;5115561;28;20435;-54
2023/08/11 10:49:43;;;;;;;0.40;0.30;;;;;;;31.67;38.48;95588.25;5115595;28;20539;-53
2023/08/11 10:52:12;;;;;;;0.40;0.30;;;;;;;31.12;36.23;95583.28;5115291;28;20895;-53
2023/08/11 10:54:50;;;;;;;0.80;0.47;;;;;;;31.12;34.97;95586.03;5115718;28;20500;-52
2023/08/11 10:57:20;;;;;;;1.33;1.23;;;;;;;32.11;34.49;95571.97;5115413;28;20454;-52
2023/08/11 10:59:48;;;;;;;0.40;0.30;;;;;;;33.30;32.76;95574.94;5115555;28;20434;-52
2023/08/11 11:02:20;;;;;;;0.30;0.30;;;;;;;34.18;33.39;95573.13;5115316;28;20439;-52
2023/08/11 11:04:51;;;;;;;0.37;0.30;;;;;;;34.90;31.52;95575.13;5115369;28;20525;-52
2023/08/11 11:07:23;;;;;;;0.30;0.30;;;;;;;35.91;30.20;95570.88;5115460;28;20522;-52
2023/08/11 11:09:52;;;;;;;0.50;0.40;;;;;;;34.74;31.41;95574.22;5114783;28;21105;-52
2023/08/11 11:12:21;;;;;;;0.40;0.30;;;;;;;34.06;31.75;95568.94;5115423;28;20478;-52
2023/08/11 11:14:50;;;;;;;0.40;0.30;;;;;;;33.37;33.14;95574.84;5114885;28;20658;-52
2023/08/11 11:17:18;;;;;;;0.40;0.30;;;;;;;33.06;32.99;95567.75;5115127;27;20439;-53
2023/08/11 11:19:47;;;;;;;0.30;0.30;;;;;;;32.43;33.88;95563.53;5114823;28;20430;-53
2023/08/11 11:22:17;;;;;;;0.40;0.40;;;;;;;32.78;32.85;95565.25;5115222;28;20439;-53
2023/08/11 11:24:46;;;;;;;0.40;0.30;;;;;;;32.16;34.16;95571.56;5114874;28;20467;-53
2023/08/11 11:27:14;;;;;;;0.30;0.20;;;;;;;31.63;35.89;95574.56;5115215;27;20446;-53
2023/08/11 11:29:43;;;;;;;0.40;0.30;;;;;;;31.25;36.42;95564.47;5114330;28;20427;-53
2023/08/11 11:32:11;;;;;;;0.30;0.20;;;;;;;31.27;37.56;95567.63;5114086;28;20466;-53
2023/08/11 11:34:40;;;;;;;0.30;0.30;;;;;;;30.45;36.79;95568.84;5114679;28;20640;-54
2023/08/11 11:40:54;;;;;;;0.50;0.33;;;;;;;29.74;35.89;95570.63;5114509;28;20449;-54
2023/08/11 11:43:22;;;;;;;0.60;0.50;;;;;;;29.80;35.91;95575.38;5114635;28;20439;-54
2023/08/11 11:45:52;;;;;;;0.40;0.40;;;;;;;30.11;35.27;95560.97;5113902;28;20443;-54